PACV METAR and TAF weather

Enter ICAO airport designator
Station Type Date Time Source
PACV METAR 2021/09/24 03:09 UTC NOAA

PACV 240309Z 11012G27KT 2 1/2SM -RA BR BKN021 OVC025 11/09 A2898 RMK AO2 PK WND 12027/0304 P0001 T01110089


Station Type Date Time Source
PACV Decoded METAR 2021/09/24 03:09 UTC NOAA

MERLE K. SMITH AIRPORT, AK, United States (PACV) 60-30N 145-29W 13M
Sep 23, 2021 - 11:09 PM EDT / 2021.09.24 0309 UTC
Wind: from the ESE (110 degrees) at 14 MPH (12 KT) gusting to 31 MPH (27 KT):0
Visibility: 2 1/2 mile(s):0
Sky conditions: overcast
Weather: light rain; mist
Precipitation last hour: 0.01 inches
Temperature: 52.0 F (11.1 C)
Dew Point: 48.0 F (8.9 C)
Relative Humidity: 86%
Pressure (altimeter): 28.98 in. Hg (981 hPa)
ob: PACV 240309Z 11012G27KT 2 1/2SM -RA BR BKN021 OVC025 11/09 A2898 RMK AO2 PK WND 12027/0304 P0001 T01110089
cycle: 3

Station Type Date Time Source
PACV TAF 2021/09/23 18:58 UTC NOAA

TAF PACV 231757Z 2318/2418 09008G15KT P6SM -RA SCT040 OVC050
FM231900 09012G22KT 6SM -RA BR SCT010 OVC025
FM240000 10018G30KT 4SM -RA BR SCT007 OVC015
FM240800 10015G25KT 6SM -RA BR SCT010 OVC020
FM241200 10018G30KT 6SM -RA BR SCT007 OVC015

Example: see airport list